Aioicho, Japan

10:27 PM JST on 五月 24, 2017 (GMT +0900)
Unnamed Road | | Change Station

高度 59 ft 34.96 °N, 138.43 °E | Updated 13 minutes ago

曇
69.8 °F
体感気温 69.8 °F
0.6
風 変数 風 から
Gusts 1.2 Mph

今日
高い -- | 低 -- °F
--% 降水確率
昨日
高い -- | 低 -- °F
Precip. -- インチ
気圧 29.77 インチ
視程 6.2 マイル
わずか 2000 ft
だいたい曇 11000 ft
露点温度 63 °F
湿度 78%
降水 0.00 インチ
積雪深 利用不可。
4:36 AM 6:49 PM
二十六夜, 2% visible
SPECI RJNY 241138Z 17004KT 9999 -SHRA FEW020 BKN110 BKN/// 20/18 Q1008 RMK 1CU020 6AC110 A2979
気圧 29.77 インチ
視程 6.2 マイル
わずか 2000 ft
だいたい曇 11000 ft
露点温度 63 °F
湿度 78%
降水 0.00 インチ
積雪深 利用不可。
4:36 AM 6:49 PM
二十六夜, 2% visible
SPECI RJNY 241138Z 17004KT 9999 -SHRA FEW020 BKN110 BKN/// 20/18 Q1008 RMK 1CU020 6AC110 A2979

Get Severe Weather Alerts

Thanks for signing up!

Be on the lookout for a verification email in your inbox.

You'll start receiving the daily forecast at 6 AM.

×

10-Day Weather Forecast

No radar image for this location.
×

Almanac

天文

May. 24, 2017 入り
実時間
常用薄明
航海薄明
天文薄明
可視光の長さ
可照時間
Tomorrow will be .
, % of the Moon is Illuminated

今日の極値

Country Highs Country Lows

Community

Category 6

Welcome to Category 6. This is the collective home for Weather Underground's featured writeups by Dr. Jeff Masters (right), Bob Henson (left), Chris Burt, and other regular contributors.

Nearby

空気品質

  空気品質 大気質指数 汚染物質
Not available.

積雪深

Station Depth 高度

地震活動

Distance Mag. Time & Date
Minimum magnitude displayed is 2.5.

沿岸の水温

地名 気温

Stations

最寄りの気象観測所

観測所位置 温度 体感気温(寒さ) 露点温度 湿度 Precip. 高度 更新日時 タイプする